Terminal Aerodrome Forecast
Issued by NWS

Home | Current Version | Previous Version | Text Only | Print | Product List | Glossary On
Versions: 1 2 3 4 5 6 7 8 9 10 11 12 13 14 15 16 17
000
FTUS46 KMFR 201739
TAFOTH
TAF
KOTH 201739Z 2018/2118 16008KT P6SM -RA BKN040 OVC060
     FM210300 14005KT 5SM BR SCT015 OVC040=

USA.gov is the U.S. government's official web portal to all federal, state and local government web resources and services.